Time;durP1;ratioP1;P1;durP2;ratioP2;P2;SDS_P1;SDS_P2;PMS_P1;PMS_P2;Temp;Humidity;BMP_temperature;BMP_pressure;BME280_temperature;BME280_humidity;BME280_pressure;Samples;Min_cycle;Max_cycle;Signal;HPM_P1;HPM_P2
2023/10/05 00:01:05;;;;;;;;;;;;;;;12.90;100.00;102253.78;5047432;28;20238;-71
2023/10/05 00:03:30;;;;;;;;;;;;;;;12.89;100.00;102259.28;5047305;28;19934;-70
2023/10/05 00:06:04;;;;;;;;;;;;;;;12.81;100.00;102259.78;5042578;28;19924;-71
2023/10/05 00:08:29;;;;;;;;;;;;;;;12.79;100.00;102256.31;5048677;28;19967;-71
2023/10/05 00:10:54;;;;;;;;;;;;;;;12.48;100.00;102212.50;5047937;28;20420;-71
2023/10/05 00:13:19;;;;;;;;;;;;;;;12.75;100.00;102269.09;5047708;28;19926;-71
2023/10/05 00:15:45;;;;;;;;;;;;;;;12.73;100.00;102272.88;5048380;28;19924;-71
2023/10/05 00:18:14;;;;;;;;;;;;;;;12.70;100.00;102281.16;5051206;28;19920;-71
2023/10/05 00:20:41;;;;;;;;;;;;;;;12.72;100.00;102284.63;5027274;28;20473;-71
2023/10/05 00:23:09;;;;;;;;;;;;;;;12.64;100.00;102277.03;5045242;28;20304;-71
2023/10/05 00:25:34;;;;;;;;;;;;;;;12.62;100.00;102278.06;5044071;28;19925;-71
2023/10/05 00:28:04;;;;;;;;;;;;;;;12.66;100.00;102279.63;5048259;28;19920;-71
2023/10/05 00:30:31;;;;;;;;;;;;;;;12.58;100.00;102282.81;5044108;28;19925;-71
2023/10/05 00:32:58;;;;;;;;;;;;;;;12.55;100.00;102281.19;5042917;28;19943;-72
2023/10/05 00:35:29;;;;;;;;;;;;;;;12.46;100.00;102281.75;5043941;28;19920;-71
2023/10/05 00:38:04;;;;;;;;;;;;;;;12.53;100.00;102287.63;5049989;28;20026;-71
2023/10/05 00:40:37;;;;;;;;;;;;;;;12.56;100.00;102292.81;5045313;28;19994;-71
2023/10/05 00:43:12;;;;;;;;;;;;;;;12.52;100.00;102293.97;5044406;28;19952;-71
2023/10/05 00:45:38;;;;;;;;;;;;;;;12.51;100.00;102292.22;5044662;28;19917;-70
2023/10/05 00:50:48;;;;;;;;;;;;;;;12.46;100.00;102295.22;5044555;28;20286;-70
2023/10/05 00:53:13;;;;;;;;;;;;;;;12.40;100.00;102301.00;5048817;28;19928;-70
2023/10/05 00:55:39;;;;;;;;;;;;;;;12.42;100.00;102299.06;5045791;28;19982;-70
2023/10/05 00:58:12;;;;;;;;;;;;;;;12.41;100.00;102298.22;5043038;28;19959;-70
2023/10/05 01:00:50;;;;;;;;;;;;;;;12.40;100.00;102295.59;5041007;28;20363;-70
2023/10/05 01:03:33;;;;;;;;;;;;;;;12.35;100.00;102309.38;5061559;28;19920;-71
2023/10/05 01:06:29;;;;;;;;;;;;;;;12.32;100.00;102295.19;5046365;28;19995;-69
2023/10/05 01:08:49;;;;;;;;;;;;;;;12.27;100.00;102296.38;5045257;28;20413;-69
2023/10/05 01:11:19;;;;;;;;;;;;;;;12.22;100.00;102294.91;5043821;28;20345;-70
2023/10/05 01:13:44;;;;;;;;;;;;;;;12.20;100.00;102294.13;5047153;28;20275;-71
2023/10/05 01:16:31;;;;;;;;;;;;;;;12.13;100.00;102290.97;5044635;28;21990;-71
2023/10/05 01:18:56;;;;;;;;;;;;;;;12.11;100.00;102284.81;5047071;28;19967;-70
2023/10/05 01:21:25;;;;;;;;;;;;;;;12.10;100.00;102286.66;5048210;28;19924;-71
2023/10/05 01:23:50;;;;;;;;;;;;;;;12.13;100.00;102288.28;5043231;28;19921;-71
2023/10/05 01:26:15;;;;;;;;;;;;;;;12.12;100.00;102297.31;5045006;28;19924;-72
2023/10/05 01:28:41;;;;;;;;;;;;;;;12.09;100.00;102284.03;5064252;28;19920;-70
2023/10/05 01:31:09;;;;;;;;;;;;;;;12.13;100.00;102283.78;5045502;28;19927;-71
2023/10/05 01:33:34;;;;;;;;;;;;;;;12.10;100.00;102277.69;5041491;28;20408;-71
2023/10/05 01:35:59;;;;;;;;;;;;;;;12.10;100.00;102286.66;5043892;28;19924;-71
2023/10/05 01:38:25;;;;;;;;;;;;;;;12.11;100.00;102282.13;5046159;28;19924;-72
2023/10/05 01:40:54;;;;;;;;;;;;;;;12.10;100.00;102280.38;5045205;28;19927;-72
2023/10/05 01:43:19;;;;;;;;;;;;;;;12.10;100.00;102273.19;5043474;28;19924;-70
2023/10/05 01:45:45;;;;;;;;;;;;;;;12.04;100.00;102272.69;5049256;28;19935;-70
2023/10/05 01:48:15;;;;;;;;;;;;;;;12.06;100.00;102274.31;5043346;28;19928;-70
2023/10/05 01:50:44;;;;;;;;;;;;;;;12.15;100.00;102275.59;5045196;28;19935;-70
2023/10/05 01:53:15;;;;;;;;;;;;;;;12.14;100.00;102280.13;5048590;28;19962;-70
2023/10/05 01:55:43;;;;;;;;;;;;;;;12.14;100.00;102280.13;5045025;28;20129;-70
2023/10/05 01:58:11;;;;;;;;;;;;;;;12.17;100.00;102280.88;5046561;28;19951;-71
2023/10/05 02:00:38;;;;;;;;;;;;;;;12.14;100.00;102277.41;5042142;28;19928;-70
2023/10/05 02:03:07;;;;;;;;;;;;;;;12.14;100.00;102273.84;5047267;28;19959;-70
2023/10/05 02:05:33;;;;;;;;;;;;;;;12.15;100.00;102268.38;5045408;28;19921;-71
2023/10/05 02:07:58;;;;;;;;;;;;;;;12.15;100.00;102263.00;5046140;28;20042;-70
2023/10/05 02:10:23;;;;;;;;;;;;;;;12.27;100.00;102263.19;5049161;28;20393;-70
2023/10/05 02:12:53;;;;;;;;;;;;;;;12.18;100.00;102271.84;5043430;28;19969;-74
2023/10/05 02:15:19;;;;;;;;;;;;;;;12.17;100.00;102267.44;5042854;28;20412;-71
2023/10/05 02:17:46;;;;;;;;;;;;;;;12.22;100.00;102268.88;5044726;28;19958;-70
2023/10/05 02:20:27;;;;;;;;;;;;;;;12.14;100.00;102265.78;5025579;28;19920;-71
2023/10/05 02:22:55;;;;;;;;;;;;;;;12.05;100.00;102261.81;5044773;28;20375;-72
2023/10/05 02:25:24;;;;;;;;;;;;;;;12.06;100.00;102268.94;5048241;28;19931;-72
2023/10/05 02:27:50;;;;;;;;;;;;;;;12.10;100.00;102264.22;5046590;28;19920;-71
2023/10/05 02:30:16;;;;;;;;;;;;;;;12.11;100.00;102263.25;5044972;28;21903;-70
2023/10/05 02:32:42;;;;;;;;;;;;;;;11.97;100.00;102264.97;5049168;28;19920;-72
2023/10/05 02:35:24;;;;;;;;;;;;;;;11.94;100.00;102262.44;5042677;28;19998;-71
2023/10/05 02:37:53;;;;;;;;;;;;;;;11.89;100.00;102259.16;5040274;28;19921;-72
2023/10/05 02:40:19;;;;;;;;;;;;;;;11.92;100.00;102256.28;5043096;28;19932;-74
2023/10/05 02:42:46;;;;;;;;;;;;;;;11.93;100.00;102254.47;5028288;28;20117;-71
2023/10/05 02:45:11;;;;;;;;;;;;;;;11.97;100.00;102264.06;5052712;28;20444;-71
2023/10/05 02:47:36;;;;;;;;;;;;;;;11.99;100.00;102259.50;5042611;28;20027;-70
2023/10/05 02:50:05;;;;;;;;;;;;;;;11.98;100.00;102255.03;5046584;28;20239;-71
2023/10/05 02:52:33;;;;;;;;;;;;;;;12.06;100.00;102252.78;5048050;28;19928;-70
2023/10/05 02:54:58;;;;;;;;;;;;;;;12.04;100.00;102257.41;5042354;28;19959;-72
2023/10/05 02:57:25;;;;;;;;;;;;;;;12.09;100.00;102249.91;5049139;28;19929;-71
2023/10/05 02:59:51;;;;;;;;;;;;;;;12.08;100.00;102255.38;5045651;28;19932;-71
2023/10/05 03:02:16;;;;;;;;;;;;;;;11.81;100.00;102208.50;5048293;28;21026;-72
2023/10/05 03:04:45;;;;;;;;;;;;;;;12.00;100.00;102245.09;5042857;28;20370;-72
2023/10/05 03:07:17;;;;;;;;;;;;;;;12.07;100.00;102243.75;5041833;28;20398;-72
2023/10/05 03:09:46;;;;;;;;;;;;;;;12.08;100.00;102244.59;5041887;28;20607;-72
2023/10/05 03:12:11;;;;;;;;;;;;;;;12.06;100.00;102249.22;5045547;28;20401;-71
2023/10/05 03:14:37;;;;;;;;;;;;;;;11.98;100.00;102239.78;5043024;28;19925;-71
2023/10/05 03:17:05;;;;;;;;;;;;;;;11.97;100.00;102242.53;5046479;28;19916;-71
2023/10/05 03:19:34;;;;;;;;;;;;;;;11.94;100.00;102240.03;5044159;28;20036;-73
2023/10/05 03:22:04;;;;;;;;;;;;;;;11.95;100.00;102247.16;5045075;28;20353;-72
2023/10/05 03:24:30;;;;;;;;;;;;;;;12.00;100.00;102247.78;5040950;28;20142;-71
2023/10/05 03:26:55;;;;;;;;;;;;;;;11.92;100.00;102245.53;5046410;28;20709;-73
2023/10/05 03:29:21;;;;;;;;;;;;;;;11.97;100.00;102242.53;5043534;28;20025;-71
2023/10/05 03:31:53;;;;;;;;;;;;;;;11.98;100.00;102244.28;5047723;28;20389;-71
2023/10/05 03:34:26;;;;;;;;;;;;;;;11.88;100.00;102243.13;5050813;28;20977;-71
2023/10/05 03:36:51;;;;;;;;;;;;;;;11.87;100.00;102241.41;5046178;28;19931;-72
2023/10/05 03:39:17;;;;;;;;;;;;;;;11.87;100.00;102246.78;5051165;28;19936;-71
2023/10/05 03:41:43;;;;;;;;;;;;;;;11.85;100.00;102245.06;5056430;28;20114;-71
2023/10/05 03:44:14;;;;;;;;;;;;;;;11.81;100.00;102243.50;5052575;28;19916;-72
2023/10/05 03:46:39;;;;;;;;;;;;;;;11.80;100.00;102227.44;5055948;28;19954;-71
2023/10/05 03:49:06;;;;;;;;;;;;;;;11.83;100.00;102233.50;5046553;28;20374;-72
2023/10/05 03:51:32;;;;;;;;;;;;;;;11.82;100.00;102230.91;5047377;28;19973;-71
2023/10/05 03:53:57;;;;;;;;;;;;;;;11.83;100.00;102228.13;5048827;28;20011;-70
2023/10/05 03:56:25;;;;;;;;;;;;;;;11.83;100.00;102232.63;5049842;28;20263;-71
2023/10/05 03:58:53;;;;;;;;;;;;;;;11.83;100.00;102227.25;5045010;28;19929;-70
2023/10/05 04:01:19;;;;;;;;;;;;;;;11.78;100.00;102237.44;5048685;28;20373;-71
2023/10/05 04:03:46;;;;;;;;;;;;;;;11.72;100.00;102240.50;5049904;28;19924;-71
2023/10/05 04:06:17;;;;;;;;;;;;;;;11.70;100.00;102240.56;5051884;28;20015;-71
2023/10/05 04:08:47;;;;;;;;;;;;;;;11.72;100.00;102240.50;5049828;28;20018;-70
2023/10/05 04:11:13;;;;;;;;;;;;;;;11.68;100.00;102240.69;5048659;28;19961;-70
2023/10/05 04:13:38;;;;;;;;;;;;;;;11.63;100.00;102239.25;5045645;28;19925;-72
2023/10/05 04:16:08;;;;;;;;;;;;;;;11.61;100.00;102236.63;5044872;28;20160;-72
2023/10/05 04:18:33;;;;;;;;;;;;;;;11.59;100.00;102233.16;5045855;28;20010;-71
2023/10/05 04:20:58;;;;;;;;;;;;;;;11.61;100.00;102236.63;5046998;28;19924;-71
2023/10/05 04:23:27;;;;;;;;;;;;;;;11.64;100.00;102247.19;5045171;28;19924;-74
2023/10/05 04:25:54;;;;;;;;;;;;;;;11.64;100.00;102241.81;5050408;28;20281;-71
2023/10/05 04:28:31;;;;;;;;;;;;;;;11.58;100.00;102249.41;5051153;28;19924;-72
2023/10/05 04:30:57;;;;;;;;;;;;;;;11.59;100.00;102249.28;5055245;28;19928;-71
2023/10/05 04:33:22;;;;;;;;;;;;;;;11.65;100.00;102246.25;5055932;28;19921;-72
2023/10/05 04:35:51;;;;;;;;;;;;;;;11.66;100.00;102242.59;5051910;28;19931;-72
2023/10/05 04:38:22;;;;;;;;;;;;;;;11.68;100.00;102245.19;5051222;28;20408;-71
2023/10/05 04:40:50;;;;;;;;;;;;;;;11.74;100.00;102250.19;5048751;28;19947;-71
2023/10/05 04:43:16;;;;;;;;;;;;;;;11.70;100.00;102254.03;5052596;28;19920;-71
2023/10/05 04:45:42;;;;;;;;;;;;;;;11.72;100.00;102252.13;5050474;28;19920;-71
2023/10/05 04:48:12;;;;;;;;;;;;;;;11.72;100.00;102249.44;5052766;28;19928;-72
2023/10/05 04:50:37;;;;;;;;;;;;;;;11.70;100.00;102246.84;5052452;28;20341;-72
2023/10/05 04:53:09;;;;;;;;;;;;;;;11.78;100.00;102251.75;5049764;28;20569;-70
2023/10/05 04:55:41;;;;;;;;;;;;;;;11.78;100.00;102248.22;5050074;28;20523;-74
2023/10/05 04:58:24;;;;;;;;;;;;;;;11.78;100.00;102245.53;5053241;28;19920;-71
2023/10/05 05:00:54;;;;;;;;;;;;;;;11.75;100.00;102234.94;5050621;28;20631;-74
2023/10/05 05:08:26;;;;;;;;;;;;;;;11.71;100.00;102250.38;5043971;28;19927;-75
2023/10/05 05:10:51;;;;;;;;;;;;;;;11.74;100.00;102246.66;5032706;28;19932;-71
2023/10/05 05:13:18;;;;;;;;;;;;;;;11.67;100.00;102255.09;5045065;28;19934;-74
2023/10/05 05:15:43;;;;;;;;;;;;;;;11.69;100.00;102247.81;5044682;28;19970;-71
2023/10/05 05:18:14;;;;;;;;;;;;;;;11.63;100.00;102244.63;5050188;28;20019;-71
2023/10/05 05:20:40;;;;;;;;;;;;;;;11.61;100.00;102251.91;5050933;28;20032;-71
2023/10/05 05:23:07;;;;;;;;;;;;;;;11.53;100.00;102250.53;5036953;28;19920;-72
2023/10/05 05:25:32;;;;;;;;;;;;;;;11.59;100.00;102257.38;5045964;28;19953;-72
2023/10/05 05:28:01;;;;;;;;;;;;;;;11.43;100.00;102256.56;5048741;28;20324;-71
2023/10/05 05:30:26;;;;;;;;;;;;;;;11.46;100.00;102259.06;5048118;28;19917;-71
2023/10/05 05:32:53;;;;;;;;;;;;;;;11.40;100.00;102261.16;5067103;28;19962;-72
2023/10/05 05:35:18;;;;;;;;;;;;;;;11.40;100.00;102257.59;5043021;28;19924;-71
2023/10/05 05:37:44;;;;;;;;;;;;;;;11.38;100.00;102268.44;5029875;28;19932;-72
2023/10/05 05:40:12;;;;;;;;;;;;;;;11.36;100.00;102264.13;5050152;28;20368;-71
2023/10/05 05:42:44;;;;;;;;;;;;;;;11.35;100.00;102276.69;5050165;28;19920;-73
2023/10/05 05:45:16;;;;;;;;;;;;;;;11.32;100.00;102276.00;5048040;28;19928;-72
2023/10/05 05:47:44;;;;;;;;;;;;;;;11.29;100.00;102276.19;5049517;28;20282;-73
2023/10/05 05:50:15;;;;;;;;;;;;;;;11.29;100.00;102290.47;5047685;28;20828;-73
2023/10/05 05:52:41;;;;;;;;;;;;;;;11.24;100.00;102289.91;5047608;28;19944;-72
2023/10/05 05:55:13;;;;;;;;;;;;;;;11.25;100.00;102287.09;5043601;28;19920;-73
2023/10/05 05:57:38;;;;;;;;;;;;;;;11.21;100.00;102285.56;5027218;28;19956;-72
2023/10/05 06:00:11;;;;;;;;;;;;;;;11.24;100.00;102293.44;5046642;28;20508;-71
2023/10/05 06:02:41;;;;;;;;;;;;;;;11.21;100.00;102296.31;5050488;28;19943;-72
2023/10/05 06:05:10;;;;;;;;;;;;;;;11.23;100.00;102301.63;5045728;28;19931;-72
2023/10/05 06:07:39;;;;;;;;;;;;;;;11.24;100.00;102301.50;5050662;28;20372;-71
2023/10/05 06:10:05;;;;;;;;;;;;;;;11.27;100.00;102296.91;5047892;28;19924;-72
2023/10/05 06:12:32;;;;;;;;;;;;;;;11.33;100.00;102300.09;5045850;28;19999;-72
2023/10/05 06:14:57;;;;;;;;;;;;;;;11.27;100.00;102303.13;5040660;28;19921;-71
2023/10/05 06:17:23;;;;;;;;;;;;;;;11.29;100.00;102305.75;5049323;28;19956;-71
2023/10/05 06:19:48;;;;;;;;;;;;;;;11.31;100.00;102304.69;5048254;28;20404;-71
2023/10/05 06:22:14;;;;;;;;;;;;;;;11.32;100.00;102309.13;5049781;28;20020;-73
2023/10/05 06:24:42;;;;;;;;;;;;;;;11.32;100.00;102308.28;5051737;28;20378;-71
2023/10/05 06:27:07;;;;;;;;;;;;;;;11.35;100.00;102303.56;5048353;28;20055;-71
2023/10/05 06:29:33;;;;;;;;;;;;;;;11.36;100.00;102302.63;5050010;28;20326;-72
2023/10/05 06:32:00;;;;;;;;;;;;;;;11.39;100.00;102315.00;5046038;28;20387;-71
2023/10/05 06:34:25;;;;;;;;;;;;;;;11.45;100.00;102305.75;5052221;28;20014;-72
2023/10/05 06:36:52;;;;;;;;;;;;;;;11.45;100.00;102308.44;5045365;28;19916;-73
2023/10/05 06:39:17;;;;;;;;;;;;;;;11.47;100.00;102310.06;5051133;28;19921;-73
2023/10/05 06:41:42;;;;;;;;;;;;;;;11.54;100.00;102310.56;5051819;28;19986;-72
2023/10/05 06:44:07;;;;;;;;;;;;;;;11.59;100.00;102307.63;5043710;28;19916;-72
2023/10/05 06:46:34;;;;;;;;;;;;;;;11.60;100.00;102298.59;5048833;28;19967;-71
2023/10/05 06:49:01;;;;;;;;;;;;;;;11.61;100.00;102313.78;5048372;28;19926;-73
2023/10/05 06:51:26;;;;;;;;;;;;;;;11.61;100.00;102309.25;5042154;28;19974;-72
2023/10/05 06:53:52;;;;;;;;;;;;;;;11.64;100.00;102319.84;5051156;28;19920;-72
2023/10/05 06:56:18;;;;;;;;;;;;;;;11.63;100.00;102323.50;5048197;28;19924;-74
2023/10/05 06:58:43;;;;;;;;;;;;;;;11.69;100.00;102322.25;5063757;28;20092;-73
2023/10/05 07:01:09;;;;;;;;;;;;;;;11.74;100.00;102324.69;5051273;28;19928;-73
2023/10/05 07:03:34;;;;;;;;;;;;;;;11.82;100.00;102335.84;5048769;28;20386;-72
2023/10/05 07:05:59;;;;;;;;;;;;;;;11.85;100.00;102338.34;5043462;28;19928;-72
2023/10/05 07:08:24;;;;;;;;;;;;;;;11.90;100.00;102338.09;5045327;28;19920;-72
2023/10/05 07:10:50;;;;;;;;;;;;;;;11.93;100.00;102333.38;5047802;28;19927;-71
2023/10/05 07:13:19;;;;;;;;;;;;;;;11.97;100.00;102329.56;5052934;28;19927;-71
2023/10/05 07:15:44;;;;;;;;;;;;;;;12.06;100.00;102336.25;5052777;28;19951;-71
2023/10/05 07:18:10;;;;;;;;;;;;;;;12.10;100.00;102331.53;5050263;28;19912;-73
2023/10/05 07:20:36;;;;;;;;;;;;;;;12.12;100.00;102341.25;5050931;28;19966;-71
2023/10/05 07:23:03;;;;;;;;;;;;;;;12.25;100.00;102356.66;5053354;28;20162;-71
2023/10/05 07:25:28;;;;;;;;;;;;;;;12.37;100.00;102357.72;5054949;28;20324;-71
2023/10/05 07:27:54;;;;;;;;;;;;;;;12.36;100.00;102361.38;5054503;28;19982;-72
2023/10/05 07:30:19;;;;;;;;;;;;;;;12.38;100.00;102368.44;5048348;28;20347;-72
2023/10/05 07:32:44;;;;;;;;;;;;;;;12.45;100.00;102367.06;5053996;28;19917;-72
2023/10/05 07:35:09;;;;;;;;;;;;;;;12.55;100.00;102370.09;5052285;28;19999;-71
2023/10/05 07:37:35;;;;;;;;;;;;;;;12.65;100.00;102366.81;5054062;28;19925;-71
2023/10/05 07:40:01;;;;;;;;;;;;;;;12.67;100.00;102368.47;5049847;28;19963;-71
2023/10/05 07:42:27;;;;;;;;;;;;;;;12.69;100.00;102371.94;5055910;28;20426;-72
2023/10/05 07:44:52;;;;;;;;;;;;;;;12.83;100.00;102381.84;5043969;28;20057;-71
2023/10/05 07:47:17;;;;;;;;;;;;;;;12.88;100.00;102389.63;5053348;28;20415;-71
2023/10/05 07:49:43;;;;;;;;;;;;;;;13.00;100.00;102394.22;5049646;28;20019;-71
2023/10/05 07:52:10;;;;;;;;;;;;;;;13.13;100.00;102388.91;5049999;28;19960;-71
2023/10/05 07:54:38;;;;;;;;;;;;;;;13.15;100.00;102389.69;5050058;28;19927;-71
2023/10/05 07:57:04;;;;;;;;;;;;;;;13.33;100.00;102395.72;5054203;28;20478;-71
2023/10/05 07:59:29;;;;;;;;;;;;;;;13.53;100.00;102398.97;5047416;28;19982;-71
2023/10/05 08:01:55;;;;;;;;;;;;;;;13.48;100.00;102396.59;5049355;28;19923;-72
2023/10/05 08:04:22;;;;;;;;;;;;;;;13.50;100.00;102394.66;5051055;28;19951;-72
2023/10/05 08:06:47;;;;;;;;;;;;;;;13.60;100.00;102396.78;5045343;28;19927;-71
2023/10/05 08:09:15;;;;;;;;;;;;;;;13.74;100.00;102395.84;5048639;28;19963;-71
2023/10/05 08:11:41;;;;;;;;;;;;;;;13.85;100.00;102392.44;5046827;28;20366;-72
2023/10/05 08:14:07;;;;;;;;;;;;;;;13.77;100.00;102396.50;5050824;28;20027;-74
2023/10/05 08:16:33;;;;;;;;;;;;;;;13.93;100.00;102396.34;5048891;28;19920;-71
2023/10/05 08:18:58;;;;;;;;;;;;;;;14.15;100.00;102404.84;5051298;28;19999;-72
2023/10/05 08:21:24;;;;;;;;;;;;;;;14.05;100.00;102397.34;5050519;28;20456;-71
2023/10/05 08:23:51;;;;;;;;;;;;;;;14.09;100.00;102401.56;5046748;28;19928;-73
2023/10/05 08:26:16;;;;;;;;;;;;;;;14.25;100.00;102397.81;5056202;28;19927;-72
2023/10/05 08:28:41;;;;;;;;;;;;;;;14.35;100.00;102398.91;5036086;28;19924;-71
2023/10/05 08:31:07;;;;;;;;;;;;;;;14.27;100.00;102405.81;5031243;28;20023;-74
2023/10/05 08:33:34;;;;;;;;;;;;;;;14.29;100.00;102404.75;5049718;28;19920;-72
2023/10/05 08:36:06;;;;;;;;;;;;;;;14.58;100.00;102412.66;5056917;28;19920;-71
2023/10/05 08:38:31;;;;;;;;;;;;;;;14.66;100.00;102409.41;5048093;28;19924;-72
2023/10/05 08:40:59;;;;;;;;;;;;;;;14.91;100.00;102413.09;5047612;28;19959;-73
2023/10/05 08:43:26;;;;;;;;;;;;;;;15.12;100.00;102414.28;5049667;28;20366;-71
2023/10/05 08:45:51;;;;;;;;;;;;;;;15.24;100.00;102412.50;5051909;28;20643;-70
2023/10/05 08:48:28;;;;;;;;;;;;;;;15.27;100.00;102404.16;5050728;28;19924;-71
2023/10/05 08:50:54;;;;;;;;;;;;;;;15.23;100.00;102404.53;5048691;28;20201;-71
2023/10/05 08:53:20;;;;;;;;;;;;;;;15.40;100.00;102408.69;5048445;28;19959;-71
2023/10/05 08:55:45;;;;;;;;;;;;;;;15.52;100.00;102415.03;5049539;28;20442;-71
2023/10/05 08:58:18;;;;;;;;;;;;;;;15.66;100.00;102411.31;5054114;28;19920;-70
2023/10/05 09:00:43;;;;;;;;;;;;;;;15.70;100.00;102415.53;5049259;28;20194;-71
2023/10/05 09:03:28;;;;;;;;;;;;;;;15.81;100.00;102420.97;5050187;28;19982;-70
2023/10/05 09:06:02;;;;;;;;;;;;;;;15.89;100.00;102413.19;5052656;28;19920;-70
2023/10/05 09:08:31;;;;;;;;;;;;;;;15.88;100.00;102418.72;5050569;28;20178;-70
2023/10/05 09:10:59;;;;;;;;;;;;;;;15.93;100.00;102430.06;5046743;28;19923;-71
2023/10/05 09:13:27;;;;;;;;;;;;;;;15.86;100.00;102434.22;5051207;28;19970;-71
2023/10/05 09:15:57;;;;;;;;;;;;;;;15.82;100.00;102438.97;5052413;28;19985;-72
2023/10/05 09:18:25;;;;;;;;;;;;;;;15.85;100.00;102441.44;5051138;28;19924;-70
2023/10/05 09:20:51;;;;;;;;;;;;;;;15.95;100.00;102443.50;5045225;28;19928;-74
2023/10/05 09:23:24;;;;;;;;;;;;;;;15.86;100.00;102456.75;5050378;28;20378;-70
2023/10/05 09:25:50;;;;;;;;;;;;;;;15.86;100.00;102464.03;5047882;28;19924;-70
2023/10/05 09:28:44;;;;;;;;;;;;;;;15.70;100.00;102465.13;5048683;28;19921;-72
2023/10/05 09:31:11;;;;;;;;;;;;;;;15.75;100.00;102473.75;5049027;28;20350;-70
2023/10/05 09:33:45;;;;;;;;;;;;;;;15.83;100.00;102472.34;5053199;28;19916;-71
2023/10/05 09:36:22;;;;;;;;;;;;;;;15.61;100.00;102484.75;5047162;28;19927;-72
2023/10/05 09:38:47;;;;;;;;;;;;;;;15.62;100.00;102482.91;5046574;28;19925;-72
2023/10/05 09:41:15;;;;;;;;;;;;;;;15.51;100.00;102476.41;5051294;28;20366;-71
2023/10/05 09:43:40;;;;;;;;;;;;;;;15.42;100.00;102477.13;5048438;28;19920;-72
2023/10/05 09:46:12;;;;;;;;;;;;;;;15.43;100.00;102471.56;5045751;28;19927;-71
2023/10/05 09:48:38;;;;;;;;;;;;;;;15.60;100.00;102462.22;5045558;28;20335;-71
2023/10/05 09:51:06;;;;;;;;;;;;;;;15.75;100.00;102456.66;5049716;28;19955;-70
2023/10/05 09:53:33;;;;;;;;;;;;;;;15.76;100.00;102458.38;5035112;28;19927;-71
2023/10/05 09:55:59;;;;;;;;;;;;;;;15.71;100.00;102455.16;5047094;28;19982;-71
2023/10/05 09:58:25;;;;;;;;;;;;;;;15.76;100.00;102450.25;5031417;28;20378;-71
2023/10/05 10:00:51;;;;;;;;;;;;;;;15.86;100.00;102448.63;5047573;28;20376;-71
2023/10/05 10:03:17;;;;;;;;;;;;;;;15.84;100.00;102453.25;5050132;28;19926;-71
2023/10/05 10:05:43;;;;;;;;;;;;;;;15.96;100.00;102450.66;5047263;28;19920;-70
2023/10/05 10:08:13;;;;;;;;;;;;;;;16.06;100.00;102458.94;5046061;28;19920;-70
2023/10/05 10:10:41;;;;;;;;;;;;;;;15.92;100.00;102455.41;5048543;28;19924;-75
2023/10/05 10:13:12;;;;;;;;;;;;;;;16.07;100.00;102471.50;5043757;28;19971;-71
2023/10/05 10:15:46;;;;;;;;;;;;;;;16.14;100.00;102457.38;5047375;28;19925;-71
2023/10/05 10:18:14;;;;;;;;;;;;;;;16.26;100.00;102460.13;5048271;28;20695;-71
2023/10/05 10:20:45;;;;;;;;;;;;;;;16.37;100.00;102457.44;5045566;28;20007;-71
2023/10/05 10:23:22;;;;;;;;;;;;;;;16.37;100.00;102462.03;5051458;28;20174;-71
2023/10/05 10:25:50;;;;;;;;;;;;;;;16.34;100.00;102460.41;5046516;28;20175;-71
2023/10/05 10:28:15;;;;;;;;;;;;;;;16.45;100.00;102459.56;5048681;28;19930;-71
2023/10/05 10:30:47;;;;;;;;;;;;;;;16.76;100.00;102460.75;5050634;28;19924;-72
2023/10/05 10:33:27;;;;;;;;;;;;;;;16.66;100.00;102458.91;5050681;28;19920;-71
2023/10/05 10:35:52;;;;;;;;;;;;;;;16.92;100.00;102456.81;5049381;28;19924;-71
2023/10/05 10:38:20;;;;;;;;;;;;;;;17.07;100.00;102455.66;5048887;28;19970;-71
2023/10/05 10:41:06;;;;;;;;;;;;;;;17.32;100.00;102458.22;5048337;28;20090;-71
2023/10/05 10:43:32;;;;;;;;;;;;;;;17.49;100.00;102460.41;5049049;28;20367;-71
2023/10/05 10:45:59;;;;;;;;;;;;;;;17.52;100.00;102464.75;5045435;28;19947;-70
2023/10/05 10:48:29;;;;;;;;;;;;;;;17.70;100.00;102454.22;5052562;28;19920;-71
2023/10/05 10:50:59;;;;;;;;;;;;;;;17.71;100.00;102458.66;5050771;28;19936;-71
2023/10/05 10:53:25;;;;;;;;;;;;;;;17.83;100.00;102462.22;5053768;28;19920;-71
2023/10/05 10:56:03;;;;;;;;;;;;;;;17.93;100.00;102451.44;5036392;28;19924;-71
2023/10/05 10:58:30;;;;;;;;;;;;;;;17.93;100.00;102448.72;5051096;28;19965;-72
2023/10/05 11:00:56;;;;;;;;;;;;;;;18.23;100.00;102449.88;5050262;28;20425;-71
2023/10/05 11:03:24;;;;;;;;;;;;;;;17.86;100.00;102448.38;5052107;28;20302;-74
2023/10/05 11:05:54;;;;;;;;;;;;;;;18.60;100.00;102446.69;5055187;28;20027;-71
2023/10/05 11:08:20;;;;;;;;;;;;;;;19.16;100.00;102450.88;5055183;28;19958;-71
2023/10/05 11:10:46;;;;;;;;;;;;;;;19.52;100.00;102455.00;5036615;28;19924;-71
2023/10/05 11:13:20;;;;;;;;;;;;;;;20.09;100.00;102449.81;5048867;28;20361;-70
2023/10/05 11:16:01;;;;;;;;;;;;;;;20.47;100.00;102442.59;5055031;28;20305;-72
2023/10/05 11:18:41;;;;;;;;;;;;;;;21.13;100.00;102442.72;5054535;28;19927;-71
2023/10/05 11:21:14;;;;;;;;;;;;;;;21.44;100.00;102439.69;5056905;28;20262;-70
2023/10/05 11:23:47;;;;;;;;;;;;;;;21.52;95.38;102438.91;5053500;28;19920;-71
2023/10/05 11:26:19;;;;;;;;;;;;;;;20.66;100.00;102438.97;5050235;28;20375;-71
2023/10/05 11:28:51;;;;;;;;;;;;;;;19.73;100.00;102444.00;5052353;28;19935;-73
2023/10/05 11:31:23;;;;;;;;;;;;;;;19.90;100.00;102447.94;5053379;28;19920;-71
2023/10/05 11:33:53;;;;;;;;;;;;;;;19.22;100.00;102451.31;5054844;28;19951;-71
2023/10/05 11:36:21;;;;;;;;;;;;;;;19.03;100.00;102451.13;5049572;28;19924;-73
2023/10/05 11:38:49;;;;;;;;;;;;;;;19.15;100.00;102446.44;5049421;28;20289;-72
2023/10/05 11:41:23;;;;;;;;;;;;;;;18.98;100.00;102444.34;5051310;28;19921;-71
2023/10/05 11:43:52;;;;;;;;;;;;;;;18.87;100.00;102437.09;5050936;28;20336;-71
2023/10/05 11:46:23;;;;;;;;;;;;;;;18.85;100.00;102439.97;5051578;28;19920;-70
2023/10/05 11:48:48;;;;;;;;;;;;;;;18.59;100.00;102434.06;5050513;28;20025;-71
2023/10/05 11:51:19;;;;;;;;;;;;;;;18.89;100.00;102435.09;5049139;28;19982;-71
2023/10/05 11:53:44;;;;;;;;;;;;;;;18.96;100.00;102435.44;5053988;28;19924;-71
2023/10/05 11:56:10;;;;;;;;;;;;;;;18.88;100.00;102438.81;5055597;28;19927;-70
2023/10/05 11:58:40;;;;;;;;;;;;;;;19.09;100.00;102432.50;5050786;28;19924;-70
2023/10/05 12:01:06;;;;;;;;;;;;;;;19.65;100.00;102442.00;5046280;28;19962;-70
2023/10/05 12:03:31;;;;;;;;;;;;;;;20.29;100.00;102438.88;5047793;28;20199;-70
2023/10/05 12:06:03;;;;;;;;;;;;;;;20.27;100.00;102440.91;5055163;28;20430;-71
2023/10/05 12:08:29;;;;;;;;;;;;;;;20.33;100.00;102435.72;5052925;28;20357;-71
2023/10/05 12:10:59;;;;;;;;;;;;;;;20.16;100.00;102431.00;5032678;28;19928;-71
2023/10/05 12:13:24;;;;;;;;;;;;;;;19.82;100.00;102431.38;5045923;28;20003;-71
2023/10/05 12:15:51;;;;;;;;;;;;;;;19.86;100.00;102432.84;5055811;28;19926;-71
2023/10/05 12:18:16;;;;;;;;;;;;;;;20.07;100.00;102433.59;5053875;28;19928;-71
2023/10/05 12:20:42;;;;;;;;;;;;;;;19.99;100.00;102433.47;5053001;28;19935;-71
2023/10/05 12:23:07;;;;;;;;;;;;;;;20.05;100.00;102430.13;5050250;28;20019;-71
2023/10/05 12:25:33;;;;;;;;;;;;;;;19.74;100.00;102422.03;5033290;28;19964;-73
2023/10/05 12:27:58;;;;;;;;;;;;;;;19.53;100.00;102427.63;5049310;28;20063;-71
2023/10/05 12:30:24;;;;;;;;;;;;;;;19.52;100.00;102431.34;5055966;28;20023;-71
2023/10/05 12:32:51;;;;;;;;;;;;;;;19.67;100.00;102436.38;5052701;28;20192;-71
2023/10/05 12:35:18;;;;;;;;;;;;;;;19.30;100.00;102438.75;5053706;28;20320;-71
2023/10/05 12:37:44;;;;;;;;;;;;;;;19.33;100.00;102438.44;5046369;28;20043;-72
2023/10/05 12:40:19;;;;;;;;;;;;;;;19.70;100.00;102433.38;5052962;28;19920;-71